Gladstone, Australia
Current Conditions -  °F | °C
As of 7:00 AM on Saturday 25 Oct 2014 (Local Time) from YGLA Reporting Station
Scattered Clouds Scattered Clouds  
Wind Chill: 66°   Ceiling: Unl
Heat Index: 66°   Visibility: 6mi
Dew Point: 59°   Wind: 8mph
Humidity: 78%   Direction: 210°SSW
Pressure: 30.15"   Gusts: NA
Location:  23.85°S, 151.25°E
Report Text: YGLA 242100Z AUTO 21007KT 9999 // SCT035 19/15 Q1021
Loading
Personal Weather Stations






























Interactive Weather Map
Tropical Storm Tracking
New forecast layout! Learn more

10-Day Weather Forecast

Advertisements
Track Severe Weather on mobile